sensor_id;sensor_type;location;lat;lon;timestamp;temperature;humidity
19385;DHT22;9828;54.122;17.974;2023-08-06T00:01:37;16.10;98.20
19385;DHT22;9828;54.122;17.974;2023-08-06T00:06:58;16.00;89.90
19385;DHT22;9828;54.122;17.974;2023-08-06T00:12:19;15.90;99.90
19385;DHT22;9828;54.122;17.974;2023-08-06T00:17:40;15.80;99.90
19385;DHT22;9828;54.122;17.974;2023-08-06T00:23:01;15.80;77.50
19385;DHT22;9828;54.122;17.974;2023-08-06T00:28:40;15.80;30.00
19385;DHT22;9828;54.122;17.974;2023-08-06T00:34:01;15.70;1.00
19385;DHT22;9828;54.122;17.974;2023-08-06T00:39:22;15.70;21.90
19385;DHT22;9828;54.122;17.974;2023-08-06T00:44:43;15.70;22.70
19385;DHT22;9828;54.122;17.974;2023-08-06T00:50:06;15.60;3.70
19385;DHT22;9828;54.122;17.974;2023-08-06T00:55:27;15.60;1.00
19385;DHT22;9828;54.122;17.974;2023-08-06T01:00:49;15.60;1.00
19385;DHT22;9828;54.122;17.974;2023-08-06T01:06:10;15.50;1.00
19385;DHT22;9828;54.122;17.974;2023-08-06T01:17:12;15.50;1.00
19385;DHT22;9828;54.122;17.974;2023-08-06T01:22:34;15.50;1.00
19385;DHT22;9828;54.122;17.974;2023-08-06T01:28:04;15.50;1.00
19385;DHT22;9828;54.122;17.974;2023-08-06T01:33:28;15.40;1.00
19385;DHT22;9828;54.122;17.974;2023-08-06T01:38:54;15.40;1.00
19385;DHT22;9828;54.122;17.974;2023-08-06T01:44:16;15.40;12.90
19385;DHT22;9828;54.122;17.974;2023-08-06T01:49:37;15.40;42.90
19385;DHT22;9828;54.122;17.974;2023-08-06T01:54:58;15.40;53.20
19385;DHT22;9828;54.122;17.974;2023-08-06T02:00:19;15.40;83.50
19385;DHT22;9828;54.122;17.974;2023-08-06T02:05:41;15.30;99.90
19385;DHT22;9828;54.122;17.974;2023-08-06T02:11:02;15.30;99.90
19385;DHT22;9828;54.122;17.974;2023-08-06T02:16:24;15.30;99.90
19385;DHT22;9828;54.122;17.974;2023-08-06T02:21:45;15.30;99.90
19385;DHT22;9828;54.122;17.974;2023-08-06T02:27:06;15.30;99.90
19385;DHT22;9828;54.122;17.974;2023-08-06T02:32:27;15.40;99.90
19385;DHT22;9828;54.122;17.974;2023-08-06T02:37:53;15.40;99.90
19385;DHT22;9828;54.122;17.974;2023-08-06T02:43:15;15.40;99.90
19385;DHT22;9828;54.122;17.974;2023-08-06T02:48:36;15.30;99.90
19385;DHT22;9828;54.122;17.974;2023-08-06T02:53:58;15.40;99.90
19385;DHT22;9828;54.122;17.974;2023-08-06T02:59:19;15.30;99.90
19385;DHT22;9828;54.122;17.974;2023-08-06T03:05:03;15.40;99.90
19385;DHT22;9828;54.122;17.974;2023-08-06T03:10:29;15.40;99.90
19385;DHT22;9828;54.122;17.974;2023-08-06T03:21:15;15.30;99.90
19385;DHT22;9828;54.122;17.974;2023-08-06T03:26:36;15.30;99.90
19385;DHT22;9828;54.122;17.974;2023-08-06T03:31:57;15.20;99.90
19385;DHT22;9828;54.122;17.974;2023-08-06T03:37:19;15.20;99.90
19385;DHT22;9828;54.122;17.974;2023-08-06T03:42:40;15.20;99.90
19385;DHT22;9828;54.122;17.974;2023-08-06T03:48:01;15.10;99.90
19385;DHT22;9828;54.122;17.974;2023-08-06T03:53:23;15.20;99.90
19385;DHT22;9828;54.122;17.974;2023-08-06T03:58:44;15.20;99.90
19385;DHT22;9828;54.122;17.974;2023-08-06T04:04:06;15.30;99.90
19385;DHT22;9828;54.122;17.974;2023-08-06T04:09:29;15.30;99.90
19385;DHT22;9828;54.122;17.974;2023-08-06T04:14:51;15.40;99.90
19385;DHT22;9828;54.122;17.974;2023-08-06T04:20:15;15.30;99.90
19385;DHT22;9828;54.122;17.974;2023-08-06T04:25:37;15.40;99.90
19385;DHT22;9828;54.122;17.974;2023-08-06T04:30:59;15.40;99.90
19385;DHT22;9828;54.122;17.974;2023-08-06T04:36:22;15.40;99.90
19385;DHT22;9828;54.122;17.974;2023-08-06T04:41:43;15.40;99.90
19385;DHT22;9828;54.122;17.974;2023-08-06T04:47:17;15.50;99.90
19385;DHT22;9828;54.122;17.974;2023-08-06T04:52:39;15.50;99.90
19385;DHT22;9828;54.122;17.974;2023-08-06T04:58:00;15.50;99.90
19385;DHT22;9828;54.122;17.974;2023-08-06T05:03:22;15.50;99.90
19385;DHT22;9828;54.122;17.974;2023-08-06T05:08:43;15.60;99.90
19385;DHT22;9828;54.122;17.974;2023-08-06T05:14:04;15.60;99.90
19385;DHT22;9828;54.122;17.974;2023-08-06T05:19:25;15.60;99.90
19385;DHT22;9828;54.122;17.974;2023-08-06T05:24:46;15.60;99.90
19385;DHT22;9828;54.122;17.974;2023-08-06T05:30:08;15.70;99.90
19385;DHT22;9828;54.122;17.974;2023-08-06T05:35:30;15.70;99.90
19385;DHT22;9828;54.122;17.974;2023-08-06T05:40:51;15.80;99.90
19385;DHT22;9828;54.122;17.974;2023-08-06T05:46:12;15.80;99.90
19385;DHT22;9828;54.122;17.974;2023-08-06T05:51:33;15.80;99.90
19385;DHT22;9828;54.122;17.974;2023-08-06T05:56:54;15.90;99.90
19385;DHT22;9828;54.122;17.974;2023-08-06T06:02:15;16.00;99.90
19385;DHT22;9828;54.122;17.974;2023-08-06T06:07:37;16.00;99.90
19385;DHT22;9828;54.122;17.974;2023-08-06T06:12:58;16.10;99.90
19385;DHT22;9828;54.122;17.974;2023-08-06T06:18:19;16.30;99.90
19385;DHT22;9828;54.122;17.974;2023-08-06T06:23:40;16.40;99.90
19385;DHT22;9828;54.122;17.974;2023-08-06T06:29:01;16.50;99.90
19385;DHT22;9828;54.122;17.974;2023-08-06T06:34:22;16.60;99.90
19385;DHT22;9828;54.122;17.974;2023-08-06T06:39:43;16.60;99.90
19385;DHT22;9828;54.122;17.974;2023-08-06T06:45:06;16.70;99.90
19385;DHT22;9828;54.122;17.974;2023-08-06T06:50:27;16.80;99.90
19385;DHT22;9828;54.122;17.974;2023-08-06T06:55:48;16.80;99.90
19385;DHT22;9828;54.122;17.974;2023-08-06T07:01:09;16.90;99.90
19385;DHT22;9828;54.122;17.974;2023-08-06T07:06:32;17.00;99.90
19385;DHT22;9828;54.122;17.974;2023-08-06T07:11:53;17.20;99.90
19385;DHT22;9828;54.122;17.974;2023-08-06T07:17:15;17.40;99.90
19385;DHT22;9828;54.122;17.974;2023-08-06T07:22:37;17.50;99.90
19385;DHT22;9828;54.122;17.974;2023-08-06T07:27:59;17.60;99.90
19385;DHT22;9828;54.122;17.974;2023-08-06T07:33:22;17.70;99.90
19385;DHT22;9828;54.122;17.974;2023-08-06T07:38:44;17.70;99.90
19385;DHT22;9828;54.122;17.974;2023-08-06T07:44:05;17.80;99.90
19385;DHT22;9828;54.122;17.974;2023-08-06T07:49:26;17.80;99.90
19385;DHT22;9828;54.122;17.974;2023-08-06T07:54:47;17.90;99.90
19385;DHT22;9828;54.122;17.974;2023-08-06T08:00:09;17.90;99.90
19385;DHT22;9828;54.122;17.974;2023-08-06T08:05:34;17.90;99.90
19385;DHT22;9828;54.122;17.974;2023-08-06T08:10:55;18.10;99.90
19385;DHT22;9828;54.122;17.974;2023-08-06T08:16:16;18.30;99.90
19385;DHT22;9828;54.122;17.974;2023-08-06T08:21:37;18.50;99.90
19385;DHT22;9828;54.122;17.974;2023-08-06T08:26:58;18.50;99.90
19385;DHT22;9828;54.122;17.974;2023-08-06T08:32:19;18.50;99.90
19385;DHT22;9828;54.122;17.974;2023-08-06T08:37:40;18.40;99.90
19385;DHT22;9828;54.122;17.974;2023-08-06T08:43:02;18.40;99.90
19385;DHT22;9828;54.122;17.974;2023-08-06T08:48:23;18.30;99.90
19385;DHT22;9828;54.122;17.974;2023-08-06T08:53:46;18.40;99.90
19385;DHT22;9828;54.122;17.974;2023-08-06T08:59:09;18.40;99.90
19385;DHT22;9828;54.122;17.974;2023-08-06T09:04:31;18.50;99.90
19385;DHT22;9828;54.122;17.974;2023-08-06T09:09:54;18.40;99.90
19385;DHT22;9828;54.122;17.974;2023-08-06T09:15:15;18.50;99.90
19385;DHT22;9828;54.122;17.974;2023-08-06T09:20:38;18.40;99.90
19385;DHT22;9828;54.122;17.974;2023-08-06T09:25:59;18.50;99.90
19385;DHT22;9828;54.122;17.974;2023-08-06T09:31:21;18.50;99.90
19385;DHT22;9828;54.122;17.974;2023-08-06T09:36:43;18.60;99.90
19385;DHT22;9828;54.122;17.974;2023-08-06T09:42:04;18.60;99.90
19385;DHT22;9828;54.122;17.974;2023-08-06T09:47:25;18.60;99.90
19385;DHT22;9828;54.122;17.974;2023-08-06T09:52:47;18.60;99.90
19385;DHT22;9828;54.122;17.974;2023-08-06T09:58:12;18.70;99.90
19385;DHT22;9828;54.122;17.974;2023-08-06T10:03:36;18.80;99.90
19385;DHT22;9828;54.122;17.974;2023-08-06T10:08:58;18.90;99.90
19385;DHT22;9828;54.122;17.974;2023-08-06T10:14:21;19.00;99.90
19385;DHT22;9828;54.122;17.974;2023-08-06T10:19:44;19.00;99.90
19385;DHT22;9828;54.122;17.974;2023-08-06T10:25:05;19.10;99.90
19385;DHT22;9828;54.122;17.974;2023-08-06T10:30:31;19.10;99.90
19385;DHT22;9828;54.122;17.974;2023-08-06T10:36:01;19.20;99.90
19385;DHT22;9828;54.122;17.974;2023-08-06T10:41:27;19.20;99.90
19385;DHT22;9828;54.122;17.974;2023-08-06T10:46:49;19.20;99.90
19385;DHT22;9828;54.122;17.974;2023-08-06T10:52:12;19.20;99.90
19385;DHT22;9828;54.122;17.974;2023-08-06T10:57:33;19.30;99.90
19385;DHT22;9828;54.122;17.974;2023-08-06T11:02:54;19.30;99.90
19385;DHT22;9828;54.122;17.974;2023-08-06T11:08:29;19.30;99.90
19385;DHT22;9828;54.122;17.974;2023-08-06T11:13:51;19.30;99.90
19385;DHT22;9828;54.122;17.974;2023-08-06T11:19:12;19.30;99.90
19385;DHT22;9828;54.122;17.974;2023-08-06T11:24:37;19.30;99.90
19385;DHT22;9828;54.122;17.974;2023-08-06T11:29:59;19.30;99.90
19385;DHT22;9828;54.122;17.974;2023-08-06T11:35:20;19.30;99.90
19385;DHT22;9828;54.122;17.974;2023-08-06T11:40:41;19.40;99.90
19385;DHT22;9828;54.122;17.974;2023-08-06T11:46:02;19.40;99.90
19385;DHT22;9828;54.122;17.974;2023-08-06T11:51:27;19.60;99.90
19385;DHT22;9828;54.122;17.974;2023-08-06T11:56:48;19.80;99.90
19385;DHT22;9828;54.122;17.974;2023-08-06T12:02:10;20.10;99.90
19385;DHT22;9828;54.122;17.974;2023-08-06T12:07:32;20.20;99.90
19385;DHT22;9828;54.122;17.974;2023-08-06T12:12:54;20.10;99.90
19385;DHT22;9828;54.122;17.974;2023-08-06T12:18:15;20.10;99.90
19385;DHT22;9828;54.122;17.974;2023-08-06T12:23:37;20.30;99.90
19385;DHT22;9828;54.122;17.974;2023-08-06T12:28:58;20.50;99.90
19385;DHT22;9828;54.122;17.974;2023-08-06T12:34:19;20.70;99.90
19385;DHT22;9828;54.122;17.974;2023-08-06T12:39:41;20.80;99.90
19385;DHT22;9828;54.122;17.974;2023-08-06T12:45:02;20.70;99.90
19385;DHT22;9828;54.122;17.974;2023-08-06T12:50:23;20.60;99.90
19385;DHT22;9828;54.122;17.974;2023-08-06T12:55:45;20.60;99.90
19385;DHT22;9828;54.122;17.974;2023-08-06T13:01:06;20.50;99.90
19385;DHT22;9828;54.122;17.974;2023-08-06T13:06:27;20.60;99.90
19385;DHT22;9828;54.122;17.974;2023-08-06T13:11:50;20.80;99.90
19385;DHT22;9828;54.122;17.974;2023-08-06T13:17:11;21.00;99.90
19385;DHT22;9828;54.122;17.974;2023-08-06T13:22:32;21.20;99.90
19385;DHT22;9828;54.122;17.974;2023-08-06T13:27:54;21.20;99.90
19385;DHT22;9828;54.122;17.974;2023-08-06T13:33:15;21.30;99.90
19385;DHT22;9828;54.122;17.974;2023-08-06T13:38:36;21.60;99.90
19385;DHT22;9828;54.122;17.974;2023-08-06T13:43:57;22.00;99.90
19385;DHT22;9828;54.122;17.974;2023-08-06T13:49:18;22.30;99.90
19385;DHT22;9828;54.122;17.974;2023-08-06T13:54:57;22.60;99.90
19385;DHT22;9828;54.122;17.974;2023-08-06T14:00:18;23.00;99.90
19385;DHT22;9828;54.122;17.974;2023-08-06T14:05:39;23.20;99.90
19385;DHT22;9828;54.122;17.974;2023-08-06T14:11:00;23.10;99.90
19385;DHT22;9828;54.122;17.974;2023-08-06T14:16:21;22.90;99.90
19385;DHT22;9828;54.122;17.974;2023-08-06T14:21:42;23.00;99.90
19385;DHT22;9828;54.122;17.974;2023-08-06T14:27:04;23.20;99.90
19385;DHT22;9828;54.122;17.974;2023-08-06T14:32:26;23.40;99.90
19385;DHT22;9828;54.122;17.974;2023-08-06T14:37:47;23.60;99.90
19385;DHT22;9828;54.122;17.974;2023-08-06T14:43:09;23.90;99.90
19385;DHT22;9828;54.122;17.974;2023-08-06T14:48:31;24.10;99.90
19385;DHT22;9828;54.122;17.974;2023-08-06T14:53:53;24.10;99.90
19385;DHT22;9828;54.122;17.974;2023-08-06T14:59:14;24.20;99.90
19385;DHT22;9828;54.122;17.974;2023-08-06T15:04:35;24.30;99.90
19385;DHT22;9828;54.122;17.974;2023-08-06T15:09:56;24.30;99.90
19385;DHT22;9828;54.122;17.974;2023-08-06T15:15:31;24.10;99.90
19385;DHT22;9828;54.122;17.974;2023-08-06T15:20:52;23.90;99.90
19385;DHT22;9828;54.122;17.974;2023-08-06T15:26:13;23.60;99.90
19385;DHT22;9828;54.122;17.974;2023-08-06T15:31:39;23.40;99.90
19385;DHT22;9828;54.122;17.974;2023-08-06T15:37:00;23.20;99.90
19385;DHT22;9828;54.122;17.974;2023-08-06T15:42:21;22.90;99.90
19385;DHT22;9828;54.122;17.974;2023-08-06T15:47:44;22.70;99.90
19385;DHT22;9828;54.122;17.974;2023-08-06T15:53:05;22.50;99.90
19385;DHT22;9828;54.122;17.974;2023-08-06T15:58:27;22.40;99.90
19385;DHT22;9828;54.122;17.974;2023-08-06T16:03:48;22.00;99.90
19385;DHT22;9828;54.122;17.974;2023-08-06T16:09:09;21.50;99.90
19385;DHT22;9828;54.122;17.974;2023-08-06T16:14:30;21.10;99.90
19385;DHT22;9828;54.122;17.974;2023-08-06T16:19:51;20.80;99.90
19385;DHT22;9828;54.122;17.974;2023-08-06T16:25:13;20.70;99.90
19385;DHT22;9828;54.122;17.974;2023-08-06T16:30:34;20.60;99.90
19385;DHT22;9828;54.122;17.974;2023-08-06T16:35:55;20.60;99.90
19385;DHT22;9828;54.122;17.974;2023-08-06T16:41:16;20.40;99.90
19385;DHT22;9828;54.122;17.974;2023-08-06T16:46:39;20.40;99.90
19385;DHT22;9828;54.122;17.974;2023-08-06T16:52:00;20.30;99.90
19385;DHT22;9828;54.122;17.974;2023-08-06T16:57:21;20.30;99.90
19385;DHT22;9828;54.122;17.974;2023-08-06T17:02:42;20.20;99.90
19385;DHT22;9828;54.122;17.974;2023-08-06T17:08:03;20.20;99.90
19385;DHT22;9828;54.122;17.974;2023-08-06T17:13:25;20.20;99.90
19385;DHT22;9828;54.122;17.974;2023-08-06T17:18:46;20.20;99.90
19385;DHT22;9828;54.122;17.974;2023-08-06T17:24:07;20.20;99.90
19385;DHT22;9828;54.122;17.974;2023-08-06T17:29:28;20.20;99.90
19385;DHT22;9828;54.122;17.974;2023-08-06T17:34:50;20.10;99.90
19385;DHT22;9828;54.122;17.974;2023-08-06T17:40:11;20.20;99.90
19385;DHT22;9828;54.122;17.974;2023-08-06T17:45:32;20.20;99.90
19385;DHT22;9828;54.122;17.974;2023-08-06T17:50:53;20.10;99.90
19385;DHT22;9828;54.122;17.974;2023-08-06T17:56:14;20.10;99.90
19385;DHT22;9828;54.122;17.974;2023-08-06T18:01:36;20.00;99.90
19385;DHT22;9828;54.122;17.974;2023-08-06T18:06:57;19.90;99.90
19385;DHT22;9828;54.122;17.974;2023-08-06T18:12:18;19.80;99.90
19385;DHT22;9828;54.122;17.974;2023-08-06T18:17:40;19.80;99.90
19385;DHT22;9828;54.122;17.974;2023-08-06T18:23:05;19.70;99.90
19385;DHT22;9828;54.122;17.974;2023-08-06T18:28:27;19.60;99.90
19385;DHT22;9828;54.122;17.974;2023-08-06T18:33:48;19.70;99.90
19385;DHT22;9828;54.122;17.974;2023-08-06T18:39:09;19.70;99.90
19385;DHT22;9828;54.122;17.974;2023-08-06T18:44:32;19.60;99.90
19385;DHT22;9828;54.122;17.974;2023-08-06T18:49:53;19.60;99.90
19385;DHT22;9828;54.122;17.974;2023-08-06T18:55:15;19.50;99.90
19385;DHT22;9828;54.122;17.974;2023-08-06T19:00:39;19.40;99.90
19385;DHT22;9828;54.122;17.974;2023-08-06T19:06:01;19.40;99.90
19385;DHT22;9828;54.122;17.974;2023-08-06T19:11:25;19.30;99.90
19385;DHT22;9828;54.122;17.974;2023-08-06T19:16:46;19.20;99.90
19385;DHT22;9828;54.122;17.974;2023-08-06T19:22:09;19.00;99.90
19385;DHT22;9828;54.122;17.974;2023-08-06T19:27:30;18.90;99.90
19385;DHT22;9828;54.122;17.974;2023-08-06T19:32:51;18.80;99.90
19385;DHT22;9828;54.122;17.974;2023-08-06T19:38:13;18.50;99.90
19385;DHT22;9828;54.122;17.974;2023-08-06T19:43:34;18.30;99.90
19385;DHT22;9828;54.122;17.974;2023-08-06T19:48:57;18.00;99.90
19385;DHT22;9828;54.122;17.974;2023-08-06T19:54:19;17.70;99.90
19385;DHT22;9828;54.122;17.974;2023-08-06T19:59:40;17.50;99.90
19385;DHT22;9828;54.122;17.974;2023-08-06T20:05:01;17.30;99.90
19385;DHT22;9828;54.122;17.974;2023-08-06T20:10:22;17.20;99.90
19385;DHT22;9828;54.122;17.974;2023-08-06T20:15:43;17.10;99.90
19385;DHT22;9828;54.122;17.974;2023-08-06T20:21:07;17.10;99.90
19385;DHT22;9828;54.122;17.974;2023-08-06T20:26:28;17.10;99.90
19385;DHT22;9828;54.122;17.974;2023-08-06T20:31:50;17.00;99.90
19385;DHT22;9828;54.122;17.974;2023-08-06T20:37:11;17.00;99.90
19385;DHT22;9828;54.122;17.974;2023-08-06T20:42:33;17.00;99.90
19385;DHT22;9828;54.122;17.974;2023-08-06T20:47:55;16.80;99.90
19385;DHT22;9828;54.122;17.974;2023-08-06T20:53:16;16.80;99.90
19385;DHT22;9828;54.122;17.974;2023-08-06T20:58:37;16.60;99.90
19385;DHT22;9828;54.122;17.974;2023-08-06T21:03:58;16.60;99.90
19385;DHT22;9828;54.122;17.974;2023-08-06T21:09:19;16.50;99.90
19385;DHT22;9828;54.122;17.974;2023-08-06T21:14:42;16.40;99.90
19385;DHT22;9828;54.122;17.974;2023-08-06T21:20:03;16.40;99.90
19385;DHT22;9828;54.122;17.974;2023-08-06T21:25:25;16.30;99.90
19385;DHT22;9828;54.122;17.974;2023-08-06T21:30:56;16.20;99.90
19385;DHT22;9828;54.122;17.974;2023-08-06T21:36:18;16.10;99.90
19385;DHT22;9828;54.122;17.974;2023-08-06T21:41:39;16.10;99.90
19385;DHT22;9828;54.122;17.974;2023-08-06T21:47:00;16.10;99.90
19385;DHT22;9828;54.122;17.974;2023-08-06T21:52:22;16.00;99.90
19385;DHT22;9828;54.122;17.974;2023-08-06T21:57:43;16.00;99.90
19385;DHT22;9828;54.122;17.974;2023-08-06T22:03:04;15.90;99.90
19385;DHT22;9828;54.122;17.974;2023-08-06T22:08:25;15.80;99.90
19385;DHT22;9828;54.122;17.974;2023-08-06T22:13:46;15.70;99.90
19385;DHT22;9828;54.122;17.974;2023-08-06T22:19:07;15.70;99.90
19385;DHT22;9828;54.122;17.974;2023-08-06T22:24:28;15.60;99.90
19385;DHT22;9828;54.122;17.974;2023-08-06T22:29:49;15.60;99.90
19385;DHT22;9828;54.122;17.974;2023-08-06T22:35:11;15.60;99.90
19385;DHT22;9828;54.122;17.974;2023-08-06T22:40:35;15.60;99.90
19385;DHT22;9828;54.122;17.974;2023-08-06T22:45:57;15.60;99.90
19385;DHT22;9828;54.122;17.974;2023-08-06T22:51:17;15.60;99.90
19385;DHT22;9828;54.122;17.974;2023-08-06T22:56:39;15.50;99.90
19385;DHT22;9828;54.122;17.974;2023-08-06T23:02:00;15.50;99.90
19385;DHT22;9828;54.122;17.974;2023-08-06T23:07:22;15.50;99.90
19385;DHT22;9828;54.122;17.974;2023-08-06T23:12:43;15.40;99.90
19385;DHT22;9828;54.122;17.974;2023-08-06T23:18:04;15.30;99.90
19385;DHT22;9828;54.122;17.974;2023-08-06T23:23:25;15.30;99.90
19385;DHT22;9828;54.122;17.974;2023-08-06T23:28:46;15.30;99.90
19385;DHT22;9828;54.122;17.974;2023-08-06T23:34:09;15.30;99.90
19385;DHT22;9828;54.122;17.974;2023-08-06T23:39:30;15.20;99.90
19385;DHT22;9828;54.122;17.974;2023-08-06T23:44:52;15.10;99.90
19385;DHT22;9828;54.122;17.974;2023-08-06T23:50:14;15.20;99.90
19385;DHT22;9828;54.122;17.974;2023-08-06T23:55:36;15.10;99.90
